sensor_id;sensor_type;location;lat;lon;timestamp;temperature;humidity
56771;DHT22;42641;59.794;17.616;2023-06-10T00:00:52;7.60;94.70
56771;DHT22;42641;59.794;17.616;2023-06-10T00:03:19;7.50;95.10
56771;DHT22;42641;59.794;17.616;2023-06-10T00:05:46;7.40;95.20
56771;DHT22;42641;59.794;17.616;2023-06-10T00:08:12;7.30;95.50
56771;DHT22;42641;59.794;17.616;2023-06-10T00:10:42;7.30;96.20
56771;DHT22;42641;59.794;17.616;2023-06-10T00:13:08;7.30;96.20
56771;DHT22;42641;59.794;17.616;2023-06-10T00:15:35;7.30;96.40
56771;DHT22;42641;59.794;17.616;2023-06-10T00:18:02;7.20;96.70
56771;DHT22;42641;59.794;17.616;2023-06-10T00:20:30;7.20;96.80
56771;DHT22;42641;59.794;17.616;2023-06-10T00:22:58;7.10;97.10
56771;DHT22;42641;59.794;17.616;2023-06-10T00:25:27;7.10;97.20
56771;DHT22;42641;59.794;17.616;2023-06-10T00:27:54;7.00;98.00
56771;DHT22;42641;59.794;17.616;2023-06-10T00:30:21;7.00;98.70
56771;DHT22;42641;59.794;17.616;2023-06-10T00:32:47;7.00;98.60
56771;DHT22;42641;59.794;17.616;2023-06-10T00:35:14;7.00;98.70
56771;DHT22;42641;59.794;17.616;2023-06-10T00:37:40;6.90;98.80
56771;DHT22;42641;59.794;17.616;2023-06-10T00:40:07;6.90;99.30
56771;DHT22;42641;59.794;17.616;2023-06-10T00:42:35;6.80;99.40
56771;DHT22;42641;59.794;17.616;2023-06-10T00:45:01;6.70;99.90
56771;DHT22;42641;59.794;17.616;2023-06-10T00:47:29;6.50;99.90
56771;DHT22;42641;59.794;17.616;2023-06-10T00:49:56;6.50;99.90
56771;DHT22;42641;59.794;17.616;2023-06-10T00:52:27;6.40;99.90
56771;DHT22;42641;59.794;17.616;2023-06-10T00:54:54;6.40;99.90
56771;DHT22;42641;59.794;17.616;2023-06-10T00:57:21;6.40;99.90
56771;DHT22;42641;59.794;17.616;2023-06-10T00:59:48;6.40;99.90
56771;DHT22;42641;59.794;17.616;2023-06-10T01:02:15;6.40;99.90
56771;DHT22;42641;59.794;17.616;2023-06-10T01:04:42;6.30;99.90
56771;DHT22;42641;59.794;17.616;2023-06-10T01:07:33;6.30;99.90
56771;DHT22;42641;59.794;17.616;2023-06-10T01:13:02;6.30;99.90
56771;DHT22;42641;59.794;17.616;2023-06-10T01:15:31;6.10;99.90
56771;DHT22;42641;59.794;17.616;2023-06-10T01:18:00;6.00;99.90
56771;DHT22;42641;59.794;17.616;2023-06-10T01:20:31;6.00;99.90
56771;DHT22;42641;59.794;17.616;2023-06-10T01:23:00;5.90;99.90
56771;DHT22;42641;59.794;17.616;2023-06-10T01:25:27;5.90;99.90
56771;DHT22;42641;59.794;17.616;2023-06-10T01:31:03;5.90;99.90
56771;DHT22;42641;59.794;17.616;2023-06-10T01:33:41;5.90;99.90
56771;DHT22;42641;59.794;17.616;2023-06-10T01:36:08;5.80;99.90
56771;DHT22;42641;59.794;17.616;2023-06-10T01:38:46;5.70;99.90
56771;DHT22;42641;59.794;17.616;2023-06-10T01:41:16;5.60;99.90
56771;DHT22;42641;59.794;17.616;2023-06-10T01:43:45;5.40;99.90
56771;DHT22;42641;59.794;17.616;2023-06-10T01:46:14;5.40;99.90
56771;DHT22;42641;59.794;17.616;2023-06-10T01:48:44;5.30;99.90
56771;DHT22;42641;59.794;17.616;2023-06-10T01:51:10;5.30;99.90
56771;DHT22;42641;59.794;17.616;2023-06-10T01:53:36;5.20;99.90
56771;DHT22;42641;59.794;17.616;2023-06-10T01:56:03;5.20;99.90
56771;DHT22;42641;59.794;17.616;2023-06-10T01:58:29;5.30;99.90
56771;DHT22;42641;59.794;17.616;2023-06-10T02:00:56;5.30;99.90
56771;DHT22;42641;59.794;17.616;2023-06-10T02:03:23;5.40;99.90
56771;DHT22;42641;59.794;17.616;2023-06-10T02:05:49;5.40;99.90
56771;DHT22;42641;59.794;17.616;2023-06-10T02:08:16;5.40;99.90
56771;DHT22;42641;59.794;17.616;2023-06-10T02:10:42;5.40;99.90
56771;DHT22;42641;59.794;17.616;2023-06-10T02:13:09;5.40;99.90
56771;DHT22;42641;59.794;17.616;2023-06-10T02:15:35;5.40;99.90
56771;DHT22;42641;59.794;17.616;2023-06-10T02:18:02;5.40;99.90
56771;DHT22;42641;59.794;17.616;2023-06-10T02:20:28;5.40;99.90
56771;DHT22;42641;59.794;17.616;2023-06-10T02:22:55;5.40;99.90
56771;DHT22;42641;59.794;17.616;2023-06-10T02:25:21;5.40;99.90
56771;DHT22;42641;59.794;17.616;2023-06-10T02:27:47;5.30;99.90
56771;DHT22;42641;59.794;17.616;2023-06-10T02:30:14;5.30;99.90
56771;DHT22;42641;59.794;17.616;2023-06-10T02:32:41;5.40;99.90
56771;DHT22;42641;59.794;17.616;2023-06-10T02:35:08;5.50;99.90
56771;DHT22;42641;59.794;17.616;2023-06-10T02:37:38;5.60;99.90
56771;DHT22;42641;59.794;17.616;2023-06-10T02:40:06;5.60;99.90
56771;DHT22;42641;59.794;17.616;2023-06-10T02:42:33;5.60;99.90
56771;DHT22;42641;59.794;17.616;2023-06-10T02:45:00;5.70;99.90
56771;DHT22;42641;59.794;17.616;2023-06-10T02:47:38;5.70;99.90
56771;DHT22;42641;59.794;17.616;2023-06-10T02:50:07;5.70;99.90
56771;DHT22;42641;59.794;17.616;2023-06-10T02:52:39;5.80;99.90
56771;DHT22;42641;59.794;17.616;2023-06-10T02:55:07;5.80;99.90
56771;DHT22;42641;59.794;17.616;2023-06-10T02:57:33;5.90;99.90
56771;DHT22;42641;59.794;17.616;2023-06-10T03:00:01;6.00;99.90
56771;DHT22;42641;59.794;17.616;2023-06-10T03:02:30;6.00;99.90
56771;DHT22;42641;59.794;17.616;2023-06-10T03:04:58;6.10;99.90
56771;DHT22;42641;59.794;17.616;2023-06-10T03:07:24;6.10;99.90
56771;DHT22;42641;59.794;17.616;2023-06-10T03:09:53;6.20;99.90
56771;DHT22;42641;59.794;17.616;2023-06-10T03:12:19;6.20;99.90
56771;DHT22;42641;59.794;17.616;2023-06-10T03:14:48;6.30;99.90
56771;DHT22;42641;59.794;17.616;2023-06-10T03:17:16;6.30;99.90
56771;DHT22;42641;59.794;17.616;2023-06-10T03:19:43;6.40;99.90
56771;DHT22;42641;59.794;17.616;2023-06-10T03:22:14;6.40;99.90
56771;DHT22;42641;59.794;17.616;2023-06-10T03:24:58;6.50;99.90
56771;DHT22;42641;59.794;17.616;2023-06-10T03:27:27;6.60;99.90
56771;DHT22;42641;59.794;17.616;2023-06-10T03:29:57;6.60;99.90
56771;DHT22;42641;59.794;17.616;2023-06-10T03:32:24;6.60;99.90
56771;DHT22;42641;59.794;17.616;2023-06-10T03:34:52;6.70;99.90
56771;DHT22;42641;59.794;17.616;2023-06-10T03:37:24;6.80;99.90
56771;DHT22;42641;59.794;17.616;2023-06-10T03:39:51;7.00;99.90
56771;DHT22;42641;59.794;17.616;2023-06-10T03:42:18;7.00;99.90
56771;DHT22;42641;59.794;17.616;2023-06-10T03:44:45;7.10;99.90
56771;DHT22;42641;59.794;17.616;2023-06-10T03:47:11;7.10;99.90
56771;DHT22;42641;59.794;17.616;2023-06-10T03:49:39;7.20;99.90
56771;DHT22;42641;59.794;17.616;2023-06-10T03:52:07;7.20;99.90
56771;DHT22;42641;59.794;17.616;2023-06-10T03:54:33;7.20;99.90
56771;DHT22;42641;59.794;17.616;2023-06-10T03:57:03;7.40;99.90
56771;DHT22;42641;59.794;17.616;2023-06-10T03:59:30;7.50;99.90
56771;DHT22;42641;59.794;17.616;2023-06-10T04:01:57;7.60;99.90
56771;DHT22;42641;59.794;17.616;2023-06-10T04:04:23;7.60;99.90
56771;DHT22;42641;59.794;17.616;2023-06-10T04:06:50;7.70;99.90
56771;DHT22;42641;59.794;17.616;2023-06-10T04:09:17;7.80;99.90
56771;DHT22;42641;59.794;17.616;2023-06-10T04:11:44;7.90;99.90
56771;DHT22;42641;59.794;17.616;2023-06-10T04:14:10;7.90;99.90
56771;DHT22;42641;59.794;17.616;2023-06-10T04:16:39;8.00;99.90
56771;DHT22;42641;59.794;17.616;2023-06-10T04:19:05;8.10;99.90
56771;DHT22;42641;59.794;17.616;2023-06-10T04:21:32;8.30;99.90
56771;DHT22;42641;59.794;17.616;2023-06-10T04:23:59;8.40;99.90
56771;DHT22;42641;59.794;17.616;2023-06-10T04:26:25;8.50;99.90
56771;DHT22;42641;59.794;17.616;2023-06-10T04:28:53;8.60;99.90
56771;DHT22;42641;59.794;17.616;2023-06-10T04:31:19;8.80;99.90
56771;DHT22;42641;59.794;17.616;2023-06-10T04:33:47;9.00;99.90
56771;DHT22;42641;59.794;17.616;2023-06-10T04:36:14;9.20;99.90
56771;DHT22;42641;59.794;17.616;2023-06-10T04:38:41;9.30;99.90
56771;DHT22;42641;59.794;17.616;2023-06-10T04:41:08;9.40;99.90
56771;DHT22;42641;59.794;17.616;2023-06-10T04:43:36;9.40;99.90
56771;DHT22;42641;59.794;17.616;2023-06-10T04:46:02;9.50;99.90
56771;DHT22;42641;59.794;17.616;2023-06-10T04:48:29;9.60;99.90
56771;DHT22;42641;59.794;17.616;2023-06-10T04:50:56;9.60;99.90
56771;DHT22;42641;59.794;17.616;2023-06-10T04:53:23;9.70;99.90
56771;DHT22;42641;59.794;17.616;2023-06-10T04:55:50;9.80;99.90
56771;DHT22;42641;59.794;17.616;2023-06-10T04:58:16;9.90;99.90
56771;DHT22;42641;59.794;17.616;2023-06-10T05:00:42;10.10;99.90
56771;DHT22;42641;59.794;17.616;2023-06-10T05:03:09;10.20;99.90
56771;DHT22;42641;59.794;17.616;2023-06-10T05:05:36;10.40;99.90
56771;DHT22;42641;59.794;17.616;2023-06-10T05:08:03;10.50;99.90
56771;DHT22;42641;59.794;17.616;2023-06-10T05:10:29;10.50;99.90
56771;DHT22;42641;59.794;17.616;2023-06-10T05:12:58;10.60;99.90
56771;DHT22;42641;59.794;17.616;2023-06-10T05:15:24;10.80;99.90
56771;DHT22;42641;59.794;17.616;2023-06-10T05:17:51;10.90;99.90
56771;DHT22;42641;59.794;17.616;2023-06-10T05:20:18;11.10;99.90
56771;DHT22;42641;59.794;17.616;2023-06-10T05:22:44;11.30;99.90
56771;DHT22;42641;59.794;17.616;2023-06-10T05:25:11;11.50;99.90
56771;DHT22;42641;59.794;17.616;2023-06-10T05:27:37;11.70;99.90
56771;DHT22;42641;59.794;17.616;2023-06-10T05:30:04;11.90;99.90
56771;DHT22;42641;59.794;17.616;2023-06-10T05:32:31;12.10;99.90
56771;DHT22;42641;59.794;17.616;2023-06-10T05:34:58;12.30;99.90
56771;DHT22;42641;59.794;17.616;2023-06-10T05:37:26;12.50;99.90
56771;DHT22;42641;59.794;17.616;2023-06-10T05:39:52;12.70;99.90
56771;DHT22;42641;59.794;17.616;2023-06-10T05:42:19;12.90;99.90
56771;DHT22;42641;59.794;17.616;2023-06-10T05:44:46;13.10;99.90
56771;DHT22;42641;59.794;17.616;2023-06-10T05:47:12;13.20;98.60
56771;DHT22;42641;59.794;17.616;2023-06-10T05:49:39;13.40;98.40
56771;DHT22;42641;59.794;17.616;2023-06-10T05:52:06;13.60;98.40
56771;DHT22;42641;59.794;17.616;2023-06-10T05:54:32;13.80;96.90
56771;DHT22;42641;59.794;17.616;2023-06-10T05:56:58;13.90;96.40
56771;DHT22;42641;59.794;17.616;2023-06-10T05:59:25;14.10;95.60
56771;DHT22;42641;59.794;17.616;2023-06-10T06:01:51;14.20;95.70
56771;DHT22;42641;59.794;17.616;2023-06-10T06:04:18;14.40;95.70
56771;DHT22;42641;59.794;17.616;2023-06-10T06:06:44;14.50;94.90
56771;DHT22;42641;59.794;17.616;2023-06-10T06:09:11;14.60;94.70
56771;DHT22;42641;59.794;17.616;2023-06-10T06:11:37;14.70;94.00
56771;DHT22;42641;59.794;17.616;2023-06-10T06:14:04;14.70;93.40
56771;DHT22;42641;59.794;17.616;2023-06-10T06:16:30;14.90;93.40
56771;DHT22;42641;59.794;17.616;2023-06-10T06:18:56;14.90;92.70
56771;DHT22;42641;59.794;17.616;2023-06-10T06:21:23;15.00;92.80
56771;DHT22;42641;59.794;17.616;2023-06-10T06:23:49;15.10;92.60
56771;DHT22;42641;59.794;17.616;2023-06-10T06:26:16;15.20;91.90
56771;DHT22;42641;59.794;17.616;2023-06-10T06:28:42;15.30;92.00
56771;DHT22;42641;59.794;17.616;2023-06-10T06:31:09;15.50;92.10
56771;DHT22;42641;59.794;17.616;2023-06-10T06:33:35;15.60;91.20
56771;DHT22;42641;59.794;17.616;2023-06-10T06:36:03;15.70;91.60
56771;DHT22;42641;59.794;17.616;2023-06-10T06:38:29;15.80;91.00
56771;DHT22;42641;59.794;17.616;2023-06-10T06:40:56;16.00;89.70
56771;DHT22;42641;59.794;17.616;2023-06-10T06:43:22;16.20;89.00
56771;DHT22;42641;59.794;17.616;2023-06-10T06:46:08;16.20;85.70
56771;DHT22;42641;59.794;17.616;2023-06-10T06:48:34;16.20;88.70
56771;DHT22;42641;59.794;17.616;2023-06-10T06:51:01;16.30;88.90
56771;DHT22;42641;59.794;17.616;2023-06-10T06:53:27;16.50;87.50
56771;DHT22;42641;59.794;17.616;2023-06-10T06:55:54;16.50;88.50
56771;DHT22;42641;59.794;17.616;2023-06-10T06:58:20;16.70;87.70
56771;DHT22;42641;59.794;17.616;2023-06-10T07:00:47;16.80;86.70
56771;DHT22;42641;59.794;17.616;2023-06-10T07:03:13;17.00;87.90
56771;DHT22;42641;59.794;17.616;2023-06-10T07:05:39;17.00;86.00
56771;DHT22;42641;59.794;17.616;2023-06-10T07:08:06;17.20;86.00
56771;DHT22;42641;59.794;17.616;2023-06-10T07:10:32;17.20;85.10
56771;DHT22;42641;59.794;17.616;2023-06-10T07:12:59;17.20;85.50
56771;DHT22;42641;59.794;17.616;2023-06-10T07:15:25;17.30;85.00
56771;DHT22;42641;59.794;17.616;2023-06-10T07:17:52;17.30;85.00
56771;DHT22;42641;59.794;17.616;2023-06-10T07:20:18;17.40;84.30
56771;DHT22;42641;59.794;17.616;2023-06-10T07:22:45;17.50;84.20
56771;DHT22;42641;59.794;17.616;2023-06-10T07:25:11;17.50;86.80
56771;DHT22;42641;59.794;17.616;2023-06-10T07:27:38;17.60;83.40
56771;DHT22;42641;59.794;17.616;2023-06-10T07:30:05;17.50;82.70
56771;DHT22;42641;59.794;17.616;2023-06-10T07:32:34;17.50;87.90
56771;DHT22;42641;59.794;17.616;2023-06-10T07:35:01;17.50;83.10
56771;DHT22;42641;59.794;17.616;2023-06-10T07:37:28;17.50;80.20
56771;DHT22;42641;59.794;17.616;2023-06-10T07:39:54;17.70;79.80
56771;DHT22;42641;59.794;17.616;2023-06-10T07:42:21;17.80;78.90
56771;DHT22;42641;59.794;17.616;2023-06-10T07:44:48;17.90;79.60
56771;DHT22;42641;59.794;17.616;2023-06-10T07:47:14;18.00;79.10
56771;DHT22;42641;59.794;17.616;2023-06-10T07:49:41;18.20;79.20
56771;DHT22;42641;59.794;17.616;2023-06-10T07:52:08;18.40;78.70
56771;DHT22;42641;59.794;17.616;2023-06-10T07:54:34;18.50;78.30
56771;DHT22;42641;59.794;17.616;2023-06-10T07:57:01;18.60;78.20
56771;DHT22;42641;59.794;17.616;2023-06-10T07:59:28;18.60;76.60
56771;DHT22;42641;59.794;17.616;2023-06-10T08:01:54;18.70;81.10
56771;DHT22;42641;59.794;17.616;2023-06-10T08:04:21;18.80;81.50
56771;DHT22;42641;59.794;17.616;2023-06-10T08:06:47;19.00;80.00
56771;DHT22;42641;59.794;17.616;2023-06-10T08:09:14;19.10;78.80
56771;DHT22;42641;59.794;17.616;2023-06-10T08:11:40;19.40;81.40
56771;DHT22;42641;59.794;17.616;2023-06-10T08:14:07;19.60;81.40
56771;DHT22;42641;59.794;17.616;2023-06-10T08:16:33;19.80;78.40
56771;DHT22;42641;59.794;17.616;2023-06-10T08:19:00;19.90;80.40
56771;DHT22;42641;59.794;17.616;2023-06-10T08:21:26;20.10;78.00
56771;DHT22;42641;59.794;17.616;2023-06-10T08:23:54;20.20;76.90
56771;DHT22;42641;59.794;17.616;2023-06-10T08:29:17;20.30;75.20
56771;DHT22;42641;59.794;17.616;2023-06-10T08:31:44;20.40;74.50
56771;DHT22;42641;59.794;17.616;2023-06-10T08:34:10;20.50;74.50
56771;DHT22;42641;59.794;17.616;2023-06-10T08:36:38;20.60;75.20
56771;DHT22;42641;59.794;17.616;2023-06-10T08:39:04;20.70;74.10
56771;DHT22;42641;59.794;17.616;2023-06-10T08:41:34;20.90;74.70
56771;DHT22;42641;59.794;17.616;2023-06-10T08:44:12;20.90;74.20
56771;DHT22;42641;59.794;17.616;2023-06-10T08:46:43;20.90;74.40
56771;DHT22;42641;59.794;17.616;2023-06-10T08:49:17;21.10;73.30
56771;DHT22;42641;59.794;17.616;2023-06-10T08:51:43;21.10;70.60
56771;DHT22;42641;59.794;17.616;2023-06-10T08:54:27;21.20;70.20
56771;DHT22;42641;59.794;17.616;2023-06-10T08:56:56;21.10;71.60
56771;DHT22;42641;59.794;17.616;2023-06-10T09:02:19;21.10;71.10
56771;DHT22;42641;59.794;17.616;2023-06-10T09:04:49;21.10;67.80
56771;DHT22;42641;59.794;17.616;2023-06-10T09:09:59;21.50;70.60
56771;DHT22;42641;59.794;17.616;2023-06-10T09:12:29;21.60;68.40
56771;DHT22;42641;59.794;17.616;2023-06-10T09:18:02;21.80;67.80
56771;DHT22;42641;59.794;17.616;2023-06-10T09:20:31;21.90;67.70
56771;DHT22;42641;59.794;17.616;2023-06-10T09:22:59;22.00;69.00
56771;DHT22;42641;59.794;17.616;2023-06-10T09:25:38;22.10;68.30
56771;DHT22;42641;59.794;17.616;2023-06-10T09:28:08;22.20;67.10
56771;DHT22;42641;59.794;17.616;2023-06-10T09:30:41;22.30;65.30
56771;DHT22;42641;59.794;17.616;2023-06-10T09:33:13;22.30;68.90
56771;DHT22;42641;59.794;17.616;2023-06-10T09:35:48;22.30;67.00
56771;DHT22;42641;59.794;17.616;2023-06-10T09:38:22;22.30;66.30
56771;DHT22;42641;59.794;17.616;2023-06-10T09:40:53;22.30;66.90
56771;DHT22;42641;59.794;17.616;2023-06-10T09:43:20;22.40;67.50
56771;DHT22;42641;59.794;17.616;2023-06-10T09:45:51;22.50;66.40
56771;DHT22;42641;59.794;17.616;2023-06-10T09:48:21;22.70;63.60
56771;DHT22;42641;59.794;17.616;2023-06-10T09:50:48;22.60;61.90
56771;DHT22;42641;59.794;17.616;2023-06-10T09:53:17;22.70;62.30
56771;DHT22;42641;59.794;17.616;2023-06-10T09:55:44;22.60;63.20
56771;DHT22;42641;59.794;17.616;2023-06-10T09:58:11;22.90;62.70
56771;DHT22;42641;59.794;17.616;2023-06-10T10:00:38;22.90;62.00
56771;DHT22;42641;59.794;17.616;2023-06-10T10:03:04;23.00;60.60
56771;DHT22;42641;59.794;17.616;2023-06-10T10:05:32;23.10;60.70
56771;DHT22;42641;59.794;17.616;2023-06-10T10:07:59;23.40;60.10
56771;DHT22;42641;59.794;17.616;2023-06-10T10:10:25;23.50;58.80
56771;DHT22;42641;59.794;17.616;2023-06-10T10:12:55;23.50;60.50
56771;DHT22;42641;59.794;17.616;2023-06-10T10:15:24;23.70;59.30
56771;DHT22;42641;59.794;17.616;2023-06-10T10:18:09;23.60;58.70
56771;DHT22;42641;59.794;17.616;2023-06-10T10:20:43;23.90;57.40
56771;DHT22;42641;59.794;17.616;2023-06-10T10:23:14;23.90;58.60
56771;DHT22;42641;59.794;17.616;2023-06-10T10:25:43;24.10;59.30
56771;DHT22;42641;59.794;17.616;2023-06-10T10:28:11;24.30;58.30
56771;DHT22;42641;59.794;17.616;2023-06-10T10:33:45;24.60;56.40
56771;DHT22;42641;59.794;17.616;2023-06-10T10:36:15;24.60;56.60
56771;DHT22;42641;59.794;17.616;2023-06-10T10:41:28;24.40;53.40
56771;DHT22;42641;59.794;17.616;2023-06-10T10:43:57;24.50;55.80
56771;DHT22;42641;59.794;17.616;2023-06-10T10:46:24;24.50;55.80
56771;DHT22;42641;59.794;17.616;2023-06-10T10:48:54;24.90;57.80
56771;DHT22;42641;59.794;17.616;2023-06-10T10:51:23;25.10;55.90
56771;DHT22;42641;59.794;17.616;2023-06-10T10:54:09;25.30;57.10
56771;DHT22;42641;59.794;17.616;2023-06-10T10:56:36;25.40;56.10
56771;DHT22;42641;59.794;17.616;2023-06-10T10:59:04;25.40;54.80
56771;DHT22;42641;59.794;17.616;2023-06-10T11:01:41;25.30;55.60
56771;DHT22;42641;59.794;17.616;2023-06-10T11:04:08;25.40;55.60
56771;DHT22;42641;59.794;17.616;2023-06-10T11:06:35;25.50;54.40
56771;DHT22;42641;59.794;17.616;2023-06-10T11:14:55;26.90;53.20
56771;DHT22;42641;59.794;17.616;2023-06-10T11:17:22;27.90;52.10
56771;DHT22;42641;59.794;17.616;2023-06-10T11:19:49;28.00;49.40
56771;DHT22;42641;59.794;17.616;2023-06-10T11:22:17;28.00;51.00
56771;DHT22;42641;59.794;17.616;2023-06-10T11:24:51;28.60;51.00
56771;DHT22;42641;59.794;17.616;2023-06-10T11:27:24;28.70;51.10
56771;DHT22;42641;59.794;17.616;2023-06-10T11:32:34;28.70;49.60
56771;DHT22;42641;59.794;17.616;2023-06-10T11:35:04;28.80;48.90
56771;DHT22;42641;59.794;17.616;2023-06-10T11:37:31;28.90;48.30
56771;DHT22;42641;59.794;17.616;2023-06-10T11:39:58;29.30;48.20
56771;DHT22;42641;59.794;17.616;2023-06-10T11:42:25;30.00;49.10
56771;DHT22;42641;59.794;17.616;2023-06-10T11:44:53;30.00;47.80
56771;DHT22;42641;59.794;17.616;2023-06-10T11:50:29;30.70;46.30
56771;DHT22;42641;59.794;17.616;2023-06-10T11:52:56;30.60;48.80
56771;DHT22;42641;59.794;17.616;2023-06-10T11:58:17;31.50;45.40
56771;DHT22;42641;59.794;17.616;2023-06-10T12:03:15;30.90;45.80
56771;DHT22;42641;59.794;17.616;2023-06-10T12:08:25;31.10;44.90
56771;DHT22;42641;59.794;17.616;2023-06-10T12:10:51;30.90;46.60
56771;DHT22;42641;59.794;17.616;2023-06-10T12:13:18;30.70;42.70
56771;DHT22;42641;59.794;17.616;2023-06-10T12:15:45;30.70;45.20
56771;DHT22;42641;59.794;17.616;2023-06-10T12:18:22;30.50;46.10
56771;DHT22;42641;59.794;17.616;2023-06-10T12:20:50;30.50;46.00
56771;DHT22;42641;59.794;17.616;2023-06-10T12:23:19;30.40;46.00
56771;DHT22;42641;59.794;17.616;2023-06-10T12:25:51;30.60;45.00
56771;DHT22;42641;59.794;17.616;2023-06-10T12:28:24;30.70;45.20
56771;DHT22;42641;59.794;17.616;2023-06-10T12:30:51;30.70;43.60
56771;DHT22;42641;59.794;17.616;2023-06-10T12:33:31;30.80;46.00
56771;DHT22;42641;59.794;17.616;2023-06-10T12:35:58;30.70;46.70
56771;DHT22;42641;59.794;17.616;2023-06-10T12:38:26;30.80;46.80
56771;DHT22;42641;59.794;17.616;2023-06-10T12:41:01;31.20;46.80
56771;DHT22;42641;59.794;17.616;2023-06-10T12:43:31;31.30;45.70
56771;DHT22;42641;59.794;17.616;2023-06-10T12:46:08;31.60;45.30
56771;DHT22;42641;59.794;17.616;2023-06-10T12:48:35;32.00;44.80
56771;DHT22;42641;59.794;17.616;2023-06-10T12:51:02;31.90;43.50
56771;DHT22;42641;59.794;17.616;2023-06-10T12:53:29;32.00;43.30
56771;DHT22;42641;59.794;17.616;2023-06-10T12:55:55;32.20;43.90
56771;DHT22;42641;59.794;17.616;2023-06-10T12:58:22;32.30;43.20
56771;DHT22;42641;59.794;17.616;2023-06-10T13:00:49;32.20;45.20
56771;DHT22;42641;59.794;17.616;2023-06-10T13:03:18;32.40;44.60
56771;DHT22;42641;59.794;17.616;2023-06-10T13:05:45;32.30;42.70
56771;DHT22;42641;59.794;17.616;2023-06-10T13:08:11;32.80;41.70
56771;DHT22;42641;59.794;17.616;2023-06-10T13:10:38;32.80;40.50
56771;DHT22;42641;59.794;17.616;2023-06-10T13:13:05;32.60;42.30
56771;DHT22;42641;59.794;17.616;2023-06-10T13:15:33;32.60;43.40
56771;DHT22;42641;59.794;17.616;2023-06-10T13:18:05;32.70;44.80
56771;DHT22;42641;59.794;17.616;2023-06-10T13:20:31;32.50;42.40
56771;DHT22;42641;59.794;17.616;2023-06-10T13:22:58;32.60;42.40
56771;DHT22;42641;59.794;17.616;2023-06-10T13:25:25;32.60;41.50
56771;DHT22;42641;59.794;17.616;2023-06-10T13:27:51;32.50;46.10
56771;DHT22;42641;59.794;17.616;2023-06-10T13:30:17;32.60;45.10
56771;DHT22;42641;59.794;17.616;2023-06-10T13:32:44;32.40;44.90
56771;DHT22;42641;59.794;17.616;2023-06-10T13:35:11;32.10;43.70
56771;DHT22;42641;59.794;17.616;2023-06-10T13:37:37;32.20;43.70
56771;DHT22;42641;59.794;17.616;2023-06-10T13:40:04;32.30;41.70
56771;DHT22;42641;59.794;17.616;2023-06-10T13:42:31;31.90;42.80
56771;DHT22;42641;59.794;17.616;2023-06-10T13:44:57;31.40;42.70
56771;DHT22;42641;59.794;17.616;2023-06-10T13:47:23;31.70;44.60
56771;DHT22;42641;59.794;17.616;2023-06-10T13:49:50;32.10;41.90
56771;DHT22;42641;59.794;17.616;2023-06-10T13:52:17;31.90;42.40
56771;DHT22;42641;59.794;17.616;2023-06-10T13:54:44;32.20;42.10
56771;DHT22;42641;59.794;17.616;2023-06-10T13:57:10;32.50;42.00
56771;DHT22;42641;59.794;17.616;2023-06-10T13:59:37;33.10;41.50
56771;DHT22;42641;59.794;17.616;2023-06-10T14:02:04;33.50;40.40
56771;DHT22;42641;59.794;17.616;2023-06-10T14:04:30;33.70;39.60
56771;DHT22;42641;59.794;17.616;2023-06-10T14:06:57;33.20;39.80
56771;DHT22;42641;59.794;17.616;2023-06-10T14:09:23;33.40;40.20
56771;DHT22;42641;59.794;17.616;2023-06-10T14:11:50;33.10;38.80
56771;DHT22;42641;59.794;17.616;2023-06-10T14:14:16;33.10;38.80
56771;DHT22;42641;59.794;17.616;2023-06-10T14:16:43;33.50;39.00
56771;DHT22;42641;59.794;17.616;2023-06-10T14:19:09;33.10;40.60
56771;DHT22;42641;59.794;17.616;2023-06-10T14:21:36;32.70;39.70
56771;DHT22;42641;59.794;17.616;2023-06-10T14:24:02;32.40;39.20
56771;DHT22;42641;59.794;17.616;2023-06-10T14:26:29;32.90;39.30
56771;DHT22;42641;59.794;17.616;2023-06-10T14:28:55;33.50;38.60
56771;DHT22;42641;59.794;17.616;2023-06-10T14:31:22;33.30;39.30
56771;DHT22;42641;59.794;17.616;2023-06-10T14:33:48;33.10;38.50
56771;DHT22;42641;59.794;17.616;2023-06-10T14:36:15;33.40;39.30
56771;DHT22;42641;59.794;17.616;2023-06-10T14:38:41;33.20;39.00
56771;DHT22;42641;59.794;17.616;2023-06-10T14:41:08;33.30;38.30
56771;DHT22;42641;59.794;17.616;2023-06-10T14:43:34;33.10;38.00
56771;DHT22;42641;59.794;17.616;2023-06-10T14:46:01;32.70;38.80
56771;DHT22;42641;59.794;17.616;2023-06-10T14:48:27;32.60;38.90
56771;DHT22;42641;59.794;17.616;2023-06-10T14:50:54;33.10;39.20
56771;DHT22;42641;59.794;17.616;2023-06-10T14:53:21;33.30;38.50
56771;DHT22;42641;59.794;17.616;2023-06-10T14:55:48;33.40;38.50
56771;DHT22;42641;59.794;17.616;2023-06-10T14:58:14;33.00;39.50
56771;DHT22;42641;59.794;17.616;2023-06-10T15:00:41;33.20;39.30
56771;DHT22;42641;59.794;17.616;2023-06-10T15:03:07;33.20;37.90
56771;DHT22;42641;59.794;17.616;2023-06-10T15:05:34;33.00;38.30
56771;DHT22;42641;59.794;17.616;2023-06-10T15:08:00;33.00;38.90
56771;DHT22;42641;59.794;17.616;2023-06-10T15:10:27;33.10;38.40
56771;DHT22;42641;59.794;17.616;2023-06-10T15:12:53;33.20;37.90
56771;DHT22;42641;59.794;17.616;2023-06-10T15:15:22;33.10;39.20
56771;DHT22;42641;59.794;17.616;2023-06-10T15:17:49;33.10;40.60
56771;DHT22;42641;59.794;17.616;2023-06-10T15:20:16;33.20;39.20
56771;DHT22;42641;59.794;17.616;2023-06-10T15:22:42;33.20;39.60
56771;DHT22;42641;59.794;17.616;2023-06-10T15:25:09;33.40;38.70
56771;DHT22;42641;59.794;17.616;2023-06-10T15:36:30;33.30;39.70
56771;DHT22;42641;59.794;17.616;2023-06-10T15:39:04;33.10;40.60
56771;DHT22;42641;59.794;17.616;2023-06-10T15:41:33;33.20;40.50
56771;DHT22;42641;59.794;17.616;2023-06-10T15:44:00;33.70;41.00
56771;DHT22;42641;59.794;17.616;2023-06-10T15:46:28;34.00;39.10
56771;DHT22;42641;59.794;17.616;2023-06-10T15:48:55;33.40;40.40
56771;DHT22;42641;59.794;17.616;2023-06-10T15:53:58;33.30;42.10
56771;DHT22;42641;59.794;17.616;2023-06-10T15:56:25;33.50;40.80
56771;DHT22;42641;59.794;17.616;2023-06-10T15:58:52;33.60;41.20
56771;DHT22;42641;59.794;17.616;2023-06-10T16:01:18;33.50;41.90
56771;DHT22;42641;59.794;17.616;2023-06-10T16:06:36;32.90;42.20
56771;DHT22;42641;59.794;17.616;2023-06-10T16:09:04;32.70;42.10
56771;DHT22;42641;59.794;17.616;2023-06-10T16:11:30;32.60;41.60
56771;DHT22;42641;59.794;17.616;2023-06-10T16:13:57;32.20;41.90
56771;DHT22;42641;59.794;17.616;2023-06-10T16:16:25;31.90;44.20
56771;DHT22;42641;59.794;17.616;2023-06-10T16:18:51;31.70;41.70
56771;DHT22;42641;59.794;17.616;2023-06-10T16:21:20;31.60;42.20